Calypso — IYQT — position and weather

sailwx.info

Track history (hours):
 
Tides and Currents Weather Stations Pressure Air Temp Water Temp Dewpoint Dewpoint Depression Visibility Wind Speed Wind Dir Waves Ship Positions

Calypso

Last reported at 2016-Aug-28 06:33 UTC. Time now 2016-Aug-28 07:00 UTC.
Position N 38°21' E 015°09'.

Length 32 m; draft 4.2 m.

Type: High speed craft. MMSI: 247143200.

Date/timePositionNaut miles runAvg speedWind from/ knotsBaromVisibWave heightAir tempDewpointWater temp
2016-Aug-28 06:33N 38°21' E 015°09'9 9.3
2016-Aug-28 05:33N 38°13' E 015°14'0 0.0
2016-Aug-27 13:33N 38°13' E 015°15'6 6.4
2016-Aug-27 12:33N 38°19' E 015°12'1413.6
2016-Aug-27 11:33N 38°27' E 014°58'1919.2
2016-Aug-27 10:34N 38°13' E 015°15'1515.0
2016-Aug-27 09:33N 38°25' E 015°03'2 2.4
2016-Aug-27 08:33N 38°25' E 014°60'1616.5
2016-Aug-27 07:33N 38°13' E 015°14'5 4.7
2016-Aug-27 06:34N 38°18' E 015°14'16 8.0
2016-Aug-27 04:33N 38°29' E 014°59'4 0.4
2016-Aug-26 18:34N 38°25' E 014°58'1817.5
2016-Aug-26 17:33N 38°13' E 015°15'1414.3
2016-Aug-26 16:33N 38°24' E 015°03'4 3.1
2016-Aug-26 15:21N 38°25' E 014°58'1721.8
2016-Aug-26 14:33N 38°13' E 015°14'0 0.0
2016-Aug-26 13:20N 38°13' E 015°14'1818.4
2016-Aug-26 12:23N 38°25' E 014°58'2 1.9
2016-Aug-26 11:32N 38°25' E 014°60'1616.6
2016-Aug-26 10:33N 38°13' E 015°14'2014.4
2016-Aug-26 09:09N 38°28' E 014°58'711.3
2016-Aug-26 08:33N 38°23' E 015°03'13 9.7
2016-Aug-26 07:11N 38°13' E 015°14'6 8.9
2016-Aug-26 06:34N 38°19' E 015°13'15 7.7
2016-Aug-26 04:33N 38°29' E 014°59'3 0.3
2016-Aug-25 18:33N 38°26' E 014°59'1818.0
2016-Aug-25 17:33N 38°13' E 015°14'1515.4
2016-Aug-25 16:34N 38°24' E 015°00'2 1.9
2016-Aug-25 15:21N 38°25' E 014°58'1822.1
2016-Aug-25 14:33N 38°13' E 015°14'0 0.3
2016-Aug-25 13:33N 38°13' E 015°15'1211.8
2016-Aug-25 12:34N 38°23' E 015°06'7 6.9
2016-Aug-25 11:33N 38°26' E 014°59'1818.1
2016-Aug-25 10:33N 38°13' E 015°15'1414.1
2016-Aug-25 09:33N 38°25' E 015°04'5 5.0
2016-Aug-25 08:31N 38°25' E 014°58'1818.2
2016-Aug-25 07:33N 38°13' E 015°14'4 4.3
2016-Aug-25 06:33N 38°17' E 015°15'17 8.3
2016-Aug-25 04:33N 38°29' E 014°59'4 0.4
2016-Aug-24 18:17N 38°25' E 014°59'1723.3
2016-Aug-24 17:33N 38°13' E 015°15'1413.6
2016-Aug-24 16:33N 38°23' E 015°03'4 3.9
2016-Aug-24 15:27N 38°25' E 014°58'1819.5
2016-Aug-24 14:33N 38°13' E 015°14'0 0.1
2016-Aug-24 13:33N 38°13' E 015°15'1818.1
2016-Aug-24 12:33N 38°26' E 014°58'8 8.0
2016-Aug-24 11:34N 38°21' E 015°07'1010.1
2016-Aug-24 10:33N 38°13' E 015°15'2014.8
2016-Aug-24 09:11N 38°28' E 014°57'4 6.4
2016-Aug-24 08:33N 38°25' E 014°59'1616.5
2016-Aug-24 07:33N 38°13' E 015°14'5 4.7
2016-Aug-24 06:33N 38°18' E 015°14'17 8.3
2016-Aug-24 04:33N 38°29' E 014°59'4 0.4
2016-Aug-23 18:34N 38°25' E 014°58'1817.5
2016-Aug-23 17:33N 38°13' E 015°14'1312.6
2016-Aug-23 16:33N 38°22' E 015°03'5 4.0
2016-Aug-23 15:21N 38°25' E 014°58'1721.8
2016-Aug-23 14:33N 38°13' E 015°14'0 0.1
2016-Aug-23 13:33N 38°13' E 015°15'0 0.0
2016-Aug-23 12:33N 38°13' E 015°15'0 0.3
2016-Aug-23 11:33N 38°13' E 015°15'0 0.1
2016-Aug-23 10:33N 38°13' E 015°15'1414.0
2016-Aug-23 09:33N 38°23' E 015°03'4 3.9
2016-Aug-23 08:31N 38°25' E 014°58'1818.3
2016-Aug-23 07:33N 38°13' E 015°14'5 5.2
2016-Aug-23 06:34N 38°18' E 015°13'1515.3
2016-Aug-23 05:33N 38°28' E 014°58'1 1.5
2016-Aug-23 04:33N 38°29' E 014°59'3 0.3
2016-Aug-22 18:34N 38°26' E 014°59'1817.8
2016-Aug-22 17:33N 38°13' E 015°15'1413.8
2016-Aug-22 16:33N 38°23' E 015°03'4 3.3
2016-Aug-22 15:19N 38°25' E 014°58'1823.1
2016-Aug-22 14:33N 38°13' E 015°14'0 0.2
2016-Aug-22 13:33N 38°13' E 015°15'1816.3
2016-Aug-22 12:28N 38°25' E 014°58'3 3.7
2016-Aug-22 11:33N 38°23' E 015°02'1414.3
2016-Aug-22 10:33N 38°13' E 015°14'15 7.6
2016-Aug-22 08:33N 38°24' E 015°01'1515.2
2016-Aug-22 07:33N 38°13' E 015°14'6 6.5
2016-Aug-22 06:34N 38°19' E 015°12'1413.9
2016-Aug-22 05:33N 38°28' E 014°58'1 0.9
2016-Aug-22 04:33N 38°28' E 014°59'2 0.2
2016-Aug-21 18:33N 38°27' E 014°59'1818.5
2016-Aug-21 17:33N 38°13' E 015°14'1813.6
2016-Aug-21 16:15N 38°25' E 014°58'0 0.2
2016-Aug-21 15:20N 38°25' E 014°58'1722.6
2016-Aug-21 14:33N 38°13' E 015°14'0 0.3
2016-Aug-21 13:33N 38°13' E 015°15'1010.5
2016-Aug-21 12:33N 38°21' E 015°07'8 8.0
2016-Aug-21 11:33N 38°25' E 014°58'1817.6
2016-Aug-21 10:33N 38°13' E 015°14'1111.5
2016-Aug-21 09:33N 38°22' E 015°06'7 6.0
2016-Aug-21 08:27N 38°25' E 014°58'1819.7
2016-Aug-21 07:33N 38°13' E 015°14'4 3.7
2016-Aug-21 06:33N 38°17' E 015°16'1818.3
2016-Aug-21 05:33N 38°28' E 014°58'1 1.3
2016-Aug-21 04:33N 38°29' E 014°59'4 0.4
2016-Aug-20 18:30N 38°25' E 014°58'1818.7
2016-Aug-20 17:33N 38°13' E 015°14'1817.5
2016-Aug-20 16:33N 38°25' E 014°58'8 7.3
2016-Aug-20 15:29N 38°21' E 015°06'1111.4
2016-Aug-20 14:33N 38°13' E 015°15'0 0.2
2016-Aug-20 13:33N 38°13' E 015°15'1816.9
2016-Aug-20 12:31N 38°25' E 014°58'3 3.4
2016-Aug-20 11:31N 38°23' E 015°02'1415.0
2016-Aug-20 10:33N 38°13' E 015°14'17 8.5
2016-Aug-20 08:31N 38°25' E 014°58'1718.1
2016-Aug-20 07:34N 38°13' E 015°14'6 6.3
2016-Aug-20 06:33N 38°19' E 015°12'14 7.0
2016-Aug-20 04:33N 38°29' E 014°59'2 0.2
2016-Aug-19 18:34N 38°27' E 014°59'1918.7
2016-Aug-19 17:33N 38°13' E 015°15'1817.5
2016-Aug-19 16:33N 38°25' E 014°58'0 0.1
2016-Aug-19 15:22N 38°25' E 014°58'1821.5
2016-Aug-19 14:33N 38°13' E 015°14'0 0.3
2016-Aug-19 13:33N 38°13' E 015°15'6 5.7
2016-Aug-19 12:34N 38°18' E 015°13'1313.4
2016-Aug-19 11:34N 38°25' E 014°59'1817.5
2016-Aug-19 10:33N 38°13' E 015°15'10 9.8
2016-Aug-19 09:33N 38°22' E 015°08'9 8.4
2016-Aug-19 08:30N 38°25' E 014°58'1818.6
2016-Aug-19 07:33N 38°13' E 015°14'5 4.6
2016-Aug-19 06:34N 38°18' E 015°15'1717.0
2016-Aug-19 05:33N 38°28' E 014°58'2 1.8
2016-Aug-19 04:34N 38°30' E 014°59'3 0.3
2016-Aug-18 18:33N 38°27' E 014°59'1818.3
2016-Aug-18 17:33N 38°13' E 015°14'1010.1
2016-Aug-18 16:34N 38°21' E 015°07'8 6.4
2016-Aug-18 15:19N 38°25' E 014°58'1823.1
2016-Aug-18 14:33N 38°13' E 015°14'0 0.0
2016-Aug-18 13:33N 38°13' E 015°14'1814.3
2016-Aug-18 12:19N 38°25' E 014°58'0 0.2
2016-Aug-18 11:30N 38°25' E 014°58'1718.4
2016-Aug-18 10:33N 38°13' E 015°14'2019.8
2016-Aug-18 09:33N 38°28' E 014°58'3 3.4
2016-Aug-18 08:33N 38°25' E 014°59'1716.7
2016-Aug-18 07:33N 38°13' E 015°14'5 5.4
2016-Aug-18 06:33N 38°18' E 015°14'  
Track history (hours):
 
Tides and Currents Weather Stations Pressure Air Temp Water Temp Dewpoint Dewpoint Depression Visibility Wind Speed Wind Dir Waves Ship Positions

Calypso

Last reported at 2016-Aug-28 06:33 UTC. Time now 2016-Aug-28 07:00 UTC.
Position N 38°21' E 015°09'.

Length 32 m; draft 4.2 m.

Type: High speed craft. MMSI: 247143200.

Date/timePositionNaut miles runAvg speedWind from/ knotsBaromVisibWave heightAir tempDewpointWater temp
2016-Aug-28 06:33N 38°21' E 015°09'9 9.3
2016-Aug-28 05:33N 38°13' E 015°14'0 0.0
2016-Aug-27 13:33N 38°13' E 015°15'6 6.4
2016-Aug-27 12:33N 38°19' E 015°12'1413.6
2016-Aug-27 11:33N 38°27' E 014°58'1919.2
2016-Aug-27 10:34N 38°13' E 015°15'1515.0
2016-Aug-27 09:33N 38°25' E 015°03'2 2.4
2016-Aug-27 08:33N 38°25' E 014°60'1616.5
2016-Aug-27 07:33N 38°13' E 015°14'5 4.7
2016-Aug-27 06:34N 38°18' E 015°14'16 8.0
2016-Aug-27 04:33N 38°29' E 014°59'4 0.4
2016-Aug-26 18:34N 38°25' E 014°58'1817.5
2016-Aug-26 17:33N 38°13' E 015°15'1414.3
2016-Aug-26 16:33N 38°24' E 015°03'4 3.1
2016-Aug-26 15:21N 38°25' E 014°58'1721.8
2016-Aug-26 14:33N 38°13' E 015°14'0 0.0
2016-Aug-26 13:20N 38°13' E 015°14'1818.4
2016-Aug-26 12:23N 38°25' E 014°58'2 1.9
2016-Aug-26 11:32N 38°25' E 014°60'1616.6
2016-Aug-26 10:33N 38°13' E 015°14'2014.4
2016-Aug-26 09:09N 38°28' E 014°58'711.3
2016-Aug-26 08:33N 38°23' E 015°03'13 9.7
2016-Aug-26 07:11N 38°13' E 015°14'6 8.9
2016-Aug-26 06:34N 38°19' E 015°13'15 7.7
2016-Aug-26 04:33N 38°29' E 014°59'3 0.3
2016-Aug-25 18:33N 38°26' E 014°59'1818.0
2016-Aug-25 17:33N 38°13' E 015°14'1515.4
2016-Aug-25 16:34N 38°24' E 015°00'2 1.9
2016-Aug-25 15:21N 38°25' E 014°58'1822.1
2016-Aug-25 14:33N 38°13' E 015°14'0 0.3
2016-Aug-25 13:33N 38°13' E 015°15'1211.8
2016-Aug-25 12:34N 38°23' E 015°06'7 6.9
2016-Aug-25 11:33N 38°26' E 014°59'1818.1
2016-Aug-25 10:33N 38°13' E 015°15'1414.1
2016-Aug-25 09:33N 38°25' E 015°04'5 5.0
2016-Aug-25 08:31N 38°25' E 014°58'1818.2
2016-Aug-25 07:33N 38°13' E 015°14'4 4.3
2016-Aug-25 06:33N 38°17' E 015°15'17 8.3
2016-Aug-25 04:33N 38°29' E 014°59'4 0.4
2016-Aug-24 18:17N 38°25' E 014°59'1723.3
2016-Aug-24 17:33N 38°13' E 015°15'1413.6
2016-Aug-24 16:33N 38°23' E 015°03'4 3.9
2016-Aug-24 15:27N 38°25' E 014°58'1819.5
2016-Aug-24 14:33N 38°13' E 015°14'0 0.1
2016-Aug-24 13:33N 38°13' E 015°15'1818.1
2016-Aug-24 12:33N 38°26' E 014°58'8 8.0
2016-Aug-24 11:34N 38°21' E 015°07'1010.1
2016-Aug-24 10:33N 38°13' E 015°15'2014.8
2016-Aug-24 09:11N 38°28' E 014°57'4 6.4
2016-Aug-24 08:33N 38°25' E 014°59'1616.5
2016-Aug-24 07:33N 38°13' E 015°14'5 4.7
2016-Aug-24 06:33N 38°18' E 015°14'17 8.3
2016-Aug-24 04:33N 38°29' E 014°59'4 0.4
2016-Aug-23 18:34N 38°25' E 014°58'1817.5
2016-Aug-23 17:33N 38°13' E 015°14'1312.6
2016-Aug-23 16:33N 38°22' E 015°03'5 4.0
2016-Aug-23 15:21N 38°25' E 014°58'1721.8
2016-Aug-23 14:33N 38°13' E 015°14'0 0.1
2016-Aug-23 13:33N 38°13' E 015°15'0 0.0
2016-Aug-23 12:33N 38°13' E 015°15'0 0.3
2016-Aug-23 11:33N 38°13' E 015°15'0 0.1
2016-Aug-23 10:33N 38°13' E 015°15'1414.0
2016-Aug-23 09:33N 38°23' E 015°03'4 3.9
2016-Aug-23 08:31N 38°25' E 014°58'1818.3
2016-Aug-23 07:33N 38°13' E 015°14'5 5.2
2016-Aug-23 06:34N 38°18' E 015°13'1515.3
2016-Aug-23 05:33N 38°28' E 014°58'1 1.5
2016-Aug-23 04:33N 38°29' E 014°59'3 0.3
2016-Aug-22 18:34N 38°26' E 014°59'1817.8
2016-Aug-22 17:33N 38°13' E 015°15'1413.8
2016-Aug-22 16:33N 38°23' E 015°03'4 3.3
2016-Aug-22 15:19N 38°25' E 014°58'1823.1
2016-Aug-22 14:33N 38°13' E 015°14'0 0.2
2016-Aug-22 13:33N 38°13' E 015°15'1816.3
2016-Aug-22 12:28N 38°25' E 014°58'3 3.7
2016-Aug-22 11:33N 38°23' E 015°02'1414.3
2016-Aug-22 10:33N 38°13' E 015°14'15 7.6
2016-Aug-22 08:33N 38°24' E 015°01'1515.2
2016-Aug-22 07:33N 38°13' E 015°14'6 6.5
2016-Aug-22 06:34N 38°19' E 015°12'1413.9
2016-Aug-22 05:33N 38°28' E 014°58'1 0.9
2016-Aug-22 04:33N 38°28' E 014°59'2 0.2
2016-Aug-21 18:33N 38°27' E 014°59'1818.5
2016-Aug-21 17:33N 38°13' E 015°14'1813.6
2016-Aug-21 16:15N 38°25' E 014°58'0 0.2
2016-Aug-21 15:20N 38°25' E 014°58'1722.6
2016-Aug-21 14:33N 38°13' E 015°14'0 0.3
2016-Aug-21 13:33N 38°13' E 015°15'1010.5
2016-Aug-21 12:33N 38°21' E 015°07'8 8.0
2016-Aug-21 11:33N 38°25' E 014°58'1817.6
2016-Aug-21 10:33N 38°13' E 015°14'1111.5
2016-Aug-21 09:33N 38°22' E 015°06'7 6.0
2016-Aug-21 08:27N 38°25' E 014°58'1819.7
2016-Aug-21 07:33N 38°13' E 015°14'4 3.7
2016-Aug-21 06:33N 38°17' E 015°16'1818.3
2016-Aug-21 05:33N 38°28' E 014°58'1 1.3
2016-Aug-21 04:33N 38°29' E 014°59'4 0.4
2016-Aug-20 18:30N 38°25' E 014°58'1818.7
2016-Aug-20 17:33N 38°13' E 015°14'1817.5
2016-Aug-20 16:33N 38°25' E 014°58'8 7.3
2016-Aug-20 15:29N 38°21' E 015°06'1111.4
2016-Aug-20 14:33N 38°13' E 015°15'0 0.2
2016-Aug-20 13:33N 38°13' E 015°15'1816.9
2016-Aug-20 12:31N 38°25' E 014°58'3 3.4
2016-Aug-20 11:31N 38°23' E 015°02'1415.0
2016-Aug-20 10:33N 38°13' E 015°14'17 8.5
2016-Aug-20 08:31N 38°25' E 014°58'1718.1
2016-Aug-20 07:34N 38°13' E 015°14'6 6.3
2016-Aug-20 06:33N 38°19' E 015°12'14 7.0
2016-Aug-20 04:33N 38°29' E 014°59'2 0.2
2016-Aug-19 18:34N 38°27' E 014°59'1918.7
2016-Aug-19 17:33N 38°13' E 015°15'1817.5
2016-Aug-19 16:33N 38°25' E 014°58'0 0.1
2016-Aug-19 15:22N 38°25' E 014°58'1821.5
2016-Aug-19 14:33N 38°13' E 015°14'0 0.3
2016-Aug-19 13:33N 38°13' E 015°15'6 5.7
2016-Aug-19 12:34N 38°18' E 015°13'1313.4
2016-Aug-19 11:34N 38°25' E 014°59'1817.5
2016-Aug-19 10:33N 38°13' E 015°15'10 9.8
2016-Aug-19 09:33N 38°22' E 015°08'9 8.4
2016-Aug-19 08:30N 38°25' E 014°58'1818.6
2016-Aug-19 07:33N 38°13' E 015°14'5 4.6
2016-Aug-19 06:34N 38°18' E 015°15'1717.0
2016-Aug-19 05:33N 38°28' E 014°58'2 1.8
2016-Aug-19 04:34N 38°30' E 014°59'3 0.3
2016-Aug-18 18:33N 38°27' E 014°59'1818.3
2016-Aug-18 17:33N 38°13' E 015°14'1010.1
2016-Aug-18 16:34N 38°21' E 015°07'8 6.4
2016-Aug-18 15:19N 38°25' E 014°58'1823.1
2016-Aug-18 14:33N 38°13' E 015°14'0 0.0
2016-Aug-18 13:33N 38°13' E 015°14'1814.3
2016-Aug-18 12:19N 38°25' E 014°58'0 0.2
2016-Aug-18 11:30N 38°25' E 014°58'1718.4
2016-Aug-18 10:33N 38°13' E 015°14'2019.8
2016-Aug-18 09:33N 38°28' E 014°58'3 3.4
2016-Aug-18 08:33N 38°25' E 014°59'1716.7
2016-Aug-18 07:33N 38°13' E 015°14'5 5.4
2016-Aug-18 06:33N 38°18' E 015°14'  

Dump ship's entire track history